sensor_id;sensor_type;location;lat;lon;timestamp;pressure;altitude;pressure_sealevel;temperature;humidity
70254;BME280;57649;42.968;1.608;2024-01-10T00:01:48;97432.69;;;-1.52;100.00
70254;BME280;57649;42.968;1.608;2024-01-10T00:04:13;97433.25;;;-1.47;100.00
70254;BME280;57649;42.968;1.608;2024-01-10T00:06:42;97428.38;;;-1.53;100.00
70254;BME280;57649;42.968;1.608;2024-01-10T00:09:13;97425.47;;;-1.48;100.00
70254;BME280;57649;42.968;1.608;2024-01-10T00:11:41;97415.81;;;-1.48;100.00
70254;BME280;57649;42.968;1.608;2024-01-10T00:14:07;97419.34;;;-1.49;100.00
70254;BME280;57649;42.968;1.608;2024-01-10T00:16:36;97410.91;;;-1.54;100.00
70254;BME280;57649;42.968;1.608;2024-01-10T00:19:02;97400.63;;;-1.57;100.00
70254;BME280;57649;42.968;1.608;2024-01-10T00:21:32;97411.03;;;-1.56;100.00
70254;BME280;57649;42.968;1.608;2024-01-10T00:24:01;97398.56;;;-1.52;100.00
70254;BME280;57649;42.968;1.608;2024-01-10T00:26:27;97390.88;;;-1.55;100.00
70254;BME280;57649;42.968;1.608;2024-01-10T00:28:52;97396.13;;;-1.41;100.00
70254;BME280;57649;42.968;1.608;2024-01-10T00:31:18;97392.75;;;-1.43;100.00
70254;BME280;57649;42.968;1.608;2024-01-10T00:33:51;97396.59;;;-1.48;100.00
70254;BME280;57649;42.968;1.608;2024-01-10T00:36:26;97392.00;;;-1.59;100.00
70254;BME280;57649;42.968;1.608;2024-01-10T00:38:51;97389.53;;;-1.62;100.00
70254;BME280;57649;42.968;1.608;2024-01-10T00:41:17;97381.84;;;-1.65;100.00
70254;BME280;57649;42.968;1.608;2024-01-10T00:43:43;97378.66;;;-1.70;100.00
70254;BME280;57649;42.968;1.608;2024-01-10T00:46:09;97373.50;;;-1.72;100.00
70254;BME280;57649;42.968;1.608;2024-01-10T00:48:35;97371.16;;;-1.62;100.00
70254;BME280;57649;42.968;1.608;2024-01-10T00:51:03;97377.16;;;-1.60;100.00
70254;BME280;57649;42.968;1.608;2024-01-10T00:53:34;97372.66;;;-1.58;100.00
70254;BME280;57649;42.968;1.608;2024-01-10T00:56:06;97363.19;;;-1.61;100.00
70254;BME280;57649;42.968;1.608;2024-01-10T00:58:32;97369.28;;;-1.46;100.00
70254;BME280;57649;42.968;1.608;2024-01-10T01:01:06;97352.88;;;-1.49;100.00
70254;BME280;57649;42.968;1.608;2024-01-10T01:03:32;97361.81;;;-1.52;100.00
70254;BME280;57649;42.968;1.608;2024-01-10T01:05:58;97365.25;;;-1.51;100.00
70254;BME280;57649;42.968;1.608;2024-01-10T01:08:35;97358.97;;;-1.49;100.00
70254;BME280;57649;42.968;1.608;2024-01-10T01:11:03;97371.34;;;-1.51;100.00
70254;BME280;57649;42.968;1.608;2024-01-10T01:13:31;97366.09;;;-1.51;100.00
70254;BME280;57649;42.968;1.608;2024-01-10T01:16:00;97362.47;;;-1.48;100.00
70254;BME280;57649;42.968;1.608;2024-01-10T01:18:25;97368.91;;;-1.54;100.00
70254;BME280;57649;42.968;1.608;2024-01-10T01:20:51;97372.00;;;-1.47;100.00
70254;BME280;57649;42.968;1.608;2024-01-10T01:23:23;97373.59;;;-1.73;100.00
70254;BME280;57649;42.968;1.608;2024-01-10T01:25:49;97363.84;;;-1.86;100.00
70254;BME280;57649;42.968;1.608;2024-01-10T01:28:17;97372.28;;;-1.81;100.00
70254;BME280;57649;42.968;1.608;2024-01-10T01:30:48;97371.34;;;-1.65;100.00
70254;BME280;57649;42.968;1.608;2024-01-10T01:33:15;97367.41;;;-1.72;100.00
70254;BME280;57649;42.968;1.608;2024-01-10T01:35:41;97365.25;;;-1.80;100.00
70254;BME280;57649;42.968;1.608;2024-01-10T01:38:07;97373.66;;;-1.89;100.00
70254;BME280;57649;42.968;1.608;2024-01-10T01:40:35;97378.09;;;-1.90;100.00
70254;BME280;57649;42.968;1.608;2024-01-10T01:43:33;97373.66;;;-1.89;100.00
70254;BME280;57649;42.968;1.608;2024-01-10T01:45:59;97379.88;;;-1.90;100.00
70254;BME280;57649;42.968;1.608;2024-01-10T01:48:24;97370.97;;;-1.88;100.00
70254;BME280;57649;42.968;1.608;2024-01-10T01:50:58;97383.50;;;-1.93;100.00
70254;BME280;57649;42.968;1.608;2024-01-10T01:53:29;97374.19;;;-2.13;100.00
70254;BME280;57649;42.968;1.608;2024-01-10T01:55:55;97399.06;;;-2.20;100.00
70254;BME280;57649;42.968;1.608;2024-01-10T01:58:22;97399.22;;;-2.38;100.00
70254;BME280;57649;42.968;1.608;2024-01-10T02:00:51;97395.44;;;-2.48;100.00
70254;BME280;57649;42.968;1.608;2024-01-10T02:03:20;97393.63;;;-2.47;100.00
70254;BME280;57649;42.968;1.608;2024-01-10T02:05:46;97396.38;;;-2.49;100.00
70254;BME280;57649;42.968;1.608;2024-01-10T02:08:15;97393.63;;;-2.47;100.00
70254;BME280;57649;42.968;1.608;2024-01-10T02:10:40;97400.81;;;-2.35;100.00
70254;BME280;57649;42.968;1.608;2024-01-10T02:13:06;97404.69;;;-2.26;100.00
70254;BME280;57649;42.968;1.608;2024-01-10T02:15:37;97411.53;;;-2.24;100.00
70254;BME280;57649;42.968;1.608;2024-01-10T02:18:06;97401.69;;;-2.20;100.00
70254;BME280;57649;42.968;1.608;2024-01-10T02:20:31;97402.38;;;-2.17;100.00
70254;BME280;57649;42.968;1.608;2024-01-10T02:23:05;97402.94;;;-2.11;100.00
70254;BME280;57649;42.968;1.608;2024-01-10T02:25:34;97401.66;;;-2.04;100.00
70254;BME280;57649;42.968;1.608;2024-01-10T02:28:03;97398.25;;;-1.90;100.00
70254;BME280;57649;42.968;1.608;2024-01-10T02:30:29;97404.59;;;-1.80;100.00
70254;BME280;57649;42.968;1.608;2024-01-10T02:32:57;97401.41;;;-1.85;100.00
70254;BME280;57649;42.968;1.608;2024-01-10T02:35:23;97387.44;;;-1.86;100.00
70254;BME280;57649;42.968;1.608;2024-01-10T02:37:54;97386.03;;;-1.91;100.00
70254;BME280;57649;42.968;1.608;2024-01-10T02:40:20;97385.19;;;-1.92;100.00
70254;BME280;57649;42.968;1.608;2024-01-10T02:42:51;97382.63;;;-2.08;100.00
70254;BME280;57649;42.968;1.608;2024-01-10T02:45:17;97378.97;;;-2.20;100.00
70254;BME280;57649;42.968;1.608;2024-01-10T02:47:44;97388.34;;;-2.16;100.00
70254;BME280;57649;42.968;1.608;2024-01-10T02:50:17;97379.31;;;-2.26;100.00
70254;BME280;57649;42.968;1.608;2024-01-10T02:52:43;97375.84;;;-2.26;100.00
70254;BME280;57649;42.968;1.608;2024-01-10T02:55:09;97374.81;;;-2.24;100.00
70254;BME280;57649;42.968;1.608;2024-01-10T02:57:34;97371.53;;;-2.27;100.00
70254;BME280;57649;42.968;1.608;2024-01-10T03:00:00;97378.72;;;-2.31;100.00
70254;BME280;57649;42.968;1.608;2024-01-10T03:02:28;97386.59;;;-2.31;100.00
70254;BME280;57649;42.968;1.608;2024-01-10T03:04:56;97383.28;;;-2.35;100.00
70254;BME280;57649;42.968;1.608;2024-01-10T03:07:25;97372.91;;;-2.36;100.00
70254;BME280;57649;42.968;1.608;2024-01-10T03:09:59;97382.28;;;-2.32;100.00
70254;BME280;57649;42.968;1.608;2024-01-10T03:12:25;97378.16;;;-2.36;100.00
70254;BME280;57649;42.968;1.608;2024-01-10T03:14:53;97377.38;;;-2.38;100.00
70254;BME280;57649;42.968;1.608;2024-01-10T03:17:19;97371.38;;;-2.40;100.00
70254;BME280;57649;42.968;1.608;2024-01-10T03:19:45;97367.63;;;-2.50;100.00
70254;BME280;57649;42.968;1.608;2024-01-10T03:22:11;97380.13;;;-2.56;100.00
70254;BME280;57649;42.968;1.608;2024-01-10T03:24:37;97369.22;;;-2.64;100.00
70254;BME280;57649;42.968;1.608;2024-01-10T03:27:04;97358.81;;;-2.49;100.00
70254;BME280;57649;42.968;1.608;2024-01-10T03:29:30;97357.22;;;-2.52;100.00
70254;BME280;57649;42.968;1.608;2024-01-10T03:31:55;97358.81;;;-2.49;100.00
70254;BME280;57649;42.968;1.608;2024-01-10T03:34:21;97345.41;;;-2.59;100.00
70254;BME280;57649;42.968;1.608;2024-01-10T03:36:50;97361.84;;;-2.41;100.00
70254;BME280;57649;42.968;1.608;2024-01-10T03:39:15;97351.31;;;-2.56;100.00
70254;BME280;57649;42.968;1.608;2024-01-10T03:41:41;97356.84;;;-2.46;100.00
70254;BME280;57649;42.968;1.608;2024-01-10T03:44:07;97344.78;;;-2.48;100.00
70254;BME280;57649;42.968;1.608;2024-01-10T03:46:32;97346.19;;;-2.43;100.00
70254;BME280;57649;42.968;1.608;2024-01-10T03:49:01;97339.53;;;-2.48;100.00
70254;BME280;57649;42.968;1.608;2024-01-10T03:51:30;97330.19;;;-2.53;100.00
70254;BME280;57649;42.968;1.608;2024-01-10T03:53:55;97342.50;;;-2.55;100.00
70254;BME280;57649;42.968;1.608;2024-01-10T03:56:21;97333.66;;;-2.68;100.00
70254;BME280;57649;42.968;1.608;2024-01-10T03:58:46;97331.94;;;-2.53;100.00
70254;BME280;57649;42.968;1.608;2024-01-10T04:01:15;97330.25;;;-2.54;100.00
70254;BME280;57649;42.968;1.608;2024-01-10T04:03:40;97335.94;;;-2.62;100.00
70254;BME280;57649;42.968;1.608;2024-01-10T04:06:07;97329.53;;;-2.72;100.00
70254;BME280;57649;42.968;1.608;2024-01-10T04:08:32;97330.19;;;-2.68;100.00
70254;BME280;57649;42.968;1.608;2024-01-10T04:10:59;97325.63;;;-2.65;100.00
70254;BME280;57649;42.968;1.608;2024-01-10T04:13:25;97318.31;;;-2.74;100.00
70254;BME280;57649;42.968;1.608;2024-01-10T04:15:50;97314.41;;;-2.67;100.00
70254;BME280;57649;42.968;1.608;2024-01-10T04:18:16;97308.28;;;-2.67;100.00
70254;BME280;57649;42.968;1.608;2024-01-10T04:20:44;97310.53;;;-2.76;100.00
70254;BME280;57649;42.968;1.608;2024-01-10T04:23:09;97320.94;;;-2.90;100.00
70254;BME280;57649;42.968;1.608;2024-01-10T04:25:35;97310.38;;;-2.88;100.00
70254;BME280;57649;42.968;1.608;2024-01-10T04:28:03;97318.75;;;-2.82;100.00
70254;BME280;57649;42.968;1.608;2024-01-10T04:30:31;97314.25;;;-2.80;100.00
70254;BME280;57649;42.968;1.608;2024-01-10T04:32:57;97321.16;;;-2.79;100.00
70254;BME280;57649;42.968;1.608;2024-01-10T04:35:22;97330.97;;;-2.82;100.00
70254;BME280;57649;42.968;1.608;2024-01-10T04:37:55;97323.16;;;-2.98;100.00
70254;BME280;57649;42.968;1.608;2024-01-10T04:40:21;97331.03;;;-2.98;100.00
70254;BME280;57649;42.968;1.608;2024-01-10T04:42:46;97331.84;;;-2.98;100.00
70254;BME280;57649;42.968;1.608;2024-01-10T04:45:12;97327.13;;;-3.07;100.00
70254;BME280;57649;42.968;1.608;2024-01-10T04:47:37;97321.22;;;-2.95;100.00
70254;BME280;57649;42.968;1.608;2024-01-10T04:50:03;97326.63;;;-2.98;100.00
70254;BME280;57649;42.968;1.608;2024-01-10T04:52:30;97327.81;;;-3.03;100.00
70254;BME280;57649;42.968;1.608;2024-01-10T04:54:55;97334.81;;;-3.04;100.00
70254;BME280;57649;42.968;1.608;2024-01-10T04:57:21;97321.47;;;-2.99;100.00
70254;BME280;57649;42.968;1.608;2024-01-10T04:59:46;97316.06;;;-3.12;100.00
70254;BME280;57649;42.968;1.608;2024-01-10T05:02:12;97320.97;;;-3.22;100.00
70254;BME280;57649;42.968;1.608;2024-01-10T05:04:37;97320.09;;;-3.22;100.00
70254;BME280;57649;42.968;1.608;2024-01-10T05:07:03;97322.88;;;-3.10;100.00
70254;BME280;57649;42.968;1.608;2024-01-10T05:09:28;97321.88;;;-3.07;100.00
70254;BME280;57649;42.968;1.608;2024-01-10T05:11:54;97317.25;;;-3.02;100.00
70254;BME280;57649;42.968;1.608;2024-01-10T05:14:20;97319.94;;;-3.03;100.00
70254;BME280;57649;42.968;1.608;2024-01-10T05:16:45;97319.34;;;-3.08;100.00
70254;BME280;57649;42.968;1.608;2024-01-10T05:19:13;97307.00;;;-3.06;100.00
70254;BME280;57649;42.968;1.608;2024-01-10T05:21:41;97308.56;;;-3.18;100.00
70254;BME280;57649;42.968;1.608;2024-01-10T05:24:07;97308.72;;;-3.05;100.00
70254;BME280;57649;42.968;1.608;2024-01-10T05:26:36;97301.75;;;-2.91;100.00
70254;BME280;57649;42.968;1.608;2024-01-10T05:29:01;97288.25;;;-2.99;100.00
70254;BME280;57649;42.968;1.608;2024-01-10T05:31:27;97291.44;;;-2.94;100.00
70254;BME280;57649;42.968;1.608;2024-01-10T05:33:55;97276.56;;;-2.93;100.00
70254;BME280;57649;42.968;1.608;2024-01-10T05:36:23;97295.25;;;-2.83;100.00
70254;BME280;57649;42.968;1.608;2024-01-10T05:38:49;97293.47;;;-2.83;100.00
70254;BME280;57649;42.968;1.608;2024-01-10T05:41:20;97305.38;;;-2.77;100.00
70254;BME280;57649;42.968;1.608;2024-01-10T05:43:45;97305.19;;;-2.74;100.00
70254;BME280;57649;42.968;1.608;2024-01-10T05:46:11;97308.72;;;-2.75;100.00
70254;BME280;57649;42.968;1.608;2024-01-10T05:48:43;97313.44;;;-2.66;100.00
70254;BME280;57649;42.968;1.608;2024-01-10T05:51:09;97321.66;;;-2.72;100.00
70254;BME280;57649;42.968;1.608;2024-01-10T05:53:35;97328.63;;;-2.71;100.00
70254;BME280;57649;42.968;1.608;2024-01-10T05:56:05;97346.66;;;-2.50;100.00
70254;BME280;57649;42.968;1.608;2024-01-10T05:58:31;97339.56;;;-2.64;100.00
70254;BME280;57649;42.968;1.608;2024-01-10T06:00:56;97336.56;;;-2.88;100.00
70254;BME280;57649;42.968;1.608;2024-01-10T06:03:21;97344.69;;;-2.93;100.00
70254;BME280;57649;42.968;1.608;2024-01-10T06:05:47;97342.34;;;-2.98;100.00
70254;BME280;57649;42.968;1.608;2024-01-10T06:08:12;97333.34;;;-2.94;100.00
70254;BME280;57649;42.968;1.608;2024-01-10T06:10:39;97338.44;;;-2.91;100.00
70254;BME280;57649;42.968;1.608;2024-01-10T06:13:04;97336.50;;;-3.03;100.00
70254;BME280;57649;42.968;1.608;2024-01-10T06:15:30;97335.50;;;-3.00;100.00
70254;BME280;57649;42.968;1.608;2024-01-10T06:17:55;97332.88;;;-3.00;100.00
70254;BME280;57649;42.968;1.608;2024-01-10T06:20:21;97338.44;;;-3.06;100.00
70254;BME280;57649;42.968;1.608;2024-01-10T06:22:46;97342.75;;;-3.05;100.00
70254;BME280;57649;42.968;1.608;2024-01-10T06:25:12;97341.41;;;-2.97;100.00
70254;BME280;57649;42.968;1.608;2024-01-10T06:27:37;97335.75;;;-3.05;100.00
70254;BME280;57649;42.968;1.608;2024-01-10T06:30:03;97345.09;;;-3.01;100.00
70254;BME280;57649;42.968;1.608;2024-01-10T06:32:28;97350.09;;;-2.96;100.00
70254;BME280;57649;42.968;1.608;2024-01-10T06:34:56;97342.00;;;-3.07;100.00
70254;BME280;57649;42.968;1.608;2024-01-10T06:37:21;97335.31;;;-2.97;100.00
70254;BME280;57649;42.968;1.608;2024-01-10T06:39:47;97332.22;;;-3.04;100.00
70254;BME280;57649;42.968;1.608;2024-01-10T06:42:12;97347.56;;;-2.82;100.00
70254;BME280;57649;42.968;1.608;2024-01-10T06:44:38;97343.66;;;-2.75;100.00
70254;BME280;57649;42.968;1.608;2024-01-10T06:47:04;97356.50;;;-2.70;100.00
70254;BME280;57649;42.968;1.608;2024-01-10T06:49:29;97344.72;;;-2.63;100.00
70254;BME280;57649;42.968;1.608;2024-01-10T06:51:55;97345.66;;;-2.64;100.00
70254;BME280;57649;42.968;1.608;2024-01-10T06:54:20;97354.09;;;-2.59;100.00
70254;BME280;57649;42.968;1.608;2024-01-10T06:56:46;97364.84;;;-2.63;100.00
70254;BME280;57649;42.968;1.608;2024-01-10T06:59:13;97358.72;;;-2.78;100.00
70254;BME280;57649;42.968;1.608;2024-01-10T07:01:39;97360.28;;;-2.60;100.00
70254;BME280;57649;42.968;1.608;2024-01-10T07:04:04;97352.09;;;-2.69;100.00
70254;BME280;57649;42.968;1.608;2024-01-10T07:06:30;97353.28;;;-2.75;100.00
70254;BME280;57649;42.968;1.608;2024-01-10T07:08:55;97356.66;;;-2.73;100.00
70254;BME280;57649;42.968;1.608;2024-01-10T07:11:21;97351.59;;;-2.76;100.00
70254;BME280;57649;42.968;1.608;2024-01-10T07:13:47;97347.44;;;-2.80;100.00
70254;BME280;57649;42.968;1.608;2024-01-10T07:16:12;97357.00;;;-2.79;100.00
70254;BME280;57649;42.968;1.608;2024-01-10T07:18:40;97354.63;;;-2.68;100.00
70254;BME280;57649;42.968;1.608;2024-01-10T07:21:06;97338.06;;;-2.68;100.00
70254;BME280;57649;42.968;1.608;2024-01-10T07:23:31;97347.25;;;-2.61;100.00
70254;BME280;57649;42.968;1.608;2024-01-10T07:25:57;97349.75;;;-2.74;100.00
70254;BME280;57649;42.968;1.608;2024-01-10T07:28:23;97350.41;;;-2.71;100.00
70254;BME280;57649;42.968;1.608;2024-01-10T07:30:48;97349.06;;;-2.78;100.00
70254;BME280;57649;42.968;1.608;2024-01-10T07:33:13;97353.63;;;-2.81;100.00
70254;BME280;57649;42.968;1.608;2024-01-10T07:35:42;97354.56;;;-2.82;100.00
70254;BME280;57649;42.968;1.608;2024-01-10T07:38:07;97362.34;;;-2.81;100.00
70254;BME280;57649;42.968;1.608;2024-01-10T07:40:33;97368.69;;;-2.69;100.00
70254;BME280;57649;42.968;1.608;2024-01-10T07:42:59;97368.00;;;-2.73;100.00
70254;BME280;57649;42.968;1.608;2024-01-10T07:45:26;97363.00;;;-2.61;100.00
70254;BME280;57649;42.968;1.608;2024-01-10T07:47:54;97363.97;;;-2.78;100.00
70254;BME280;57649;42.968;1.608;2024-01-10T07:50:26;97361.06;;;-2.74;100.00
70254;BME280;57649;42.968;1.608;2024-01-10T07:52:53;97370.19;;;-2.65;100.00
70254;BME280;57649;42.968;1.608;2024-01-10T07:55:18;97351.41;;;-2.57;100.00
70254;BME280;57649;42.968;1.608;2024-01-10T07:57:44;97354.16;;;-2.75;100.00
70254;BME280;57649;42.968;1.608;2024-01-10T08:00:10;97358.81;;;-2.49;100.00
70254;BME280;57649;42.968;1.608;2024-01-10T08:02:41;97358.19;;;-2.39;100.00
70254;BME280;57649;42.968;1.608;2024-01-10T08:05:07;97355.56;;;-2.39;100.00
70254;BME280;57649;42.968;1.608;2024-01-10T08:07:36;97351.50;;;-2.28;100.00
70254;BME280;57649;42.968;1.608;2024-01-10T08:10:07;97355.13;;;-2.31;100.00
70254;BME280;57649;42.968;1.608;2024-01-10T08:12:39;97353.41;;;-2.16;100.00
70254;BME280;57649;42.968;1.608;2024-01-10T08:15:06;97353.59;;;-2.05;100.00
70254;BME280;57649;42.968;1.608;2024-01-10T08:17:32;97340.78;;;-1.95;100.00
70254;BME280;57649;42.968;1.608;2024-01-10T08:20:03;97345.28;;;-1.97;100.00
70254;BME280;57649;42.968;1.608;2024-01-10T08:22:31;97349.97;;;-1.88;100.00
70254;BME280;57649;42.968;1.608;2024-01-10T08:24:57;97363.69;;;-1.68;100.00
70254;BME280;57649;42.968;1.608;2024-01-10T08:27:22;97356.38;;;-1.78;100.00
70254;BME280;57649;42.968;1.608;2024-01-10T08:29:48;97354.09;;;-1.69;100.00
70254;BME280;57649;42.968;1.608;2024-01-10T08:32:14;97349.22;;;-1.61;100.00
70254;BME280;57649;42.968;1.608;2024-01-10T08:34:40;97352.97;;;-1.51;100.00
70254;BME280;57649;42.968;1.608;2024-01-10T08:37:06;97346.78;;;-1.50;100.00
70254;BME280;57649;42.968;1.608;2024-01-10T08:39:32;97345.66;;;-1.46;100.00
70254;BME280;57649;42.968;1.608;2024-01-10T08:42:00;97356.44;;;-1.36;100.00
70254;BME280;57649;42.968;1.608;2024-01-10T08:44:28;97338.59;;;-1.17;100.00
70254;BME280;57649;42.968;1.608;2024-01-10T08:46:54;97343.66;;;-1.13;100.00
70254;BME280;57649;42.968;1.608;2024-01-10T08:49:20;97348.22;;;-1.03;100.00
70254;BME280;57649;42.968;1.608;2024-01-10T08:51:48;97345.31;;;-0.98;100.00
70254;BME280;57649;42.968;1.608;2024-01-10T08:54:20;97343.13;;;-0.91;100.00
70254;BME280;57649;42.968;1.608;2024-01-10T08:56:47;97336.00;;;-0.89;100.00
70254;BME280;57649;42.968;1.608;2024-01-10T08:59:13;97339.78;;;-0.81;100.00
70254;BME280;57649;42.968;1.608;2024-01-10T09:01:39;97340.25;;;-0.74;100.00
70254;BME280;57649;42.968;1.608;2024-01-10T09:04:05;97335.53;;;-0.69;100.00
70254;BME280;57649;42.968;1.608;2024-01-10T09:06:32;97348.28;;;-0.63;100.00
70254;BME280;57649;42.968;1.608;2024-01-10T09:08:58;97340.00;;;-0.56;100.00
70254;BME280;57649;42.968;1.608;2024-01-10T09:11:23;97329.44;;;-0.69;100.00
70254;BME280;57649;42.968;1.608;2024-01-10T09:13:50;97336.94;;;-0.63;100.00
70254;BME280;57649;42.968;1.608;2024-01-10T09:16:16;97355.25;;;-0.62;100.00
70254;BME280;57649;42.968;1.608;2024-01-10T09:18:44;97349.38;;;-0.52;100.00
70254;BME280;57649;42.968;1.608;2024-01-10T09:21:20;97345.22;;;-0.69;100.00
70254;BME280;57649;42.968;1.608;2024-01-10T09:23:46;97336.78;;;-0.47;100.00
70254;BME280;57649;42.968;1.608;2024-01-10T09:26:17;97337.50;;;-0.45;100.00
70254;BME280;57649;42.968;1.608;2024-01-10T09:28:46;97341.00;;;-0.32;99.95
70254;BME280;57649;42.968;1.608;2024-01-10T09:31:12;97341.97;;;-0.33;99.48
70254;BME280;57649;42.968;1.608;2024-01-10T09:33:38;97329.75;;;-0.34;99.05
70254;BME280;57649;42.968;1.608;2024-01-10T09:36:04;97326.22;;;-0.07;98.99
70254;BME280;57649;42.968;1.608;2024-01-10T09:38:29;97321.06;;;-0.09;98.28
70254;BME280;57649;42.968;1.608;2024-01-10T09:41:03;97324.53;;;0.17;98.22
70254;BME280;57649;42.968;1.608;2024-01-10T09:43:35;97320.09;;;0.18;97.94
70254;BME280;57649;42.968;1.608;2024-01-10T09:46:01;97320.72;;;0.22;97.64
70254;BME280;57649;42.968;1.608;2024-01-10T09:48:28;97314.53;;;0.35;96.76
70254;BME280;57649;42.968;1.608;2024-01-10T09:50:55;97320.53;;;0.37;96.41
70254;BME280;57649;42.968;1.608;2024-01-10T09:53:25;97314.63;;;0.47;95.07
70254;BME280;57649;42.968;1.608;2024-01-10T09:55:55;97325.97;;;0.47;94.44
70254;BME280;57649;42.968;1.608;2024-01-10T09:58:23;97317.22;;;0.60;93.86
70254;BME280;57649;42.968;1.608;2024-01-10T10:00:52;97309.84;;;0.65;94.18
70254;BME280;57649;42.968;1.608;2024-01-10T10:03:20;97312.47;;;0.65;94.77
70254;BME280;57649;42.968;1.608;2024-01-10T10:05:45;97313.91;;;0.82;93.90
70254;BME280;57649;42.968;1.608;2024-01-10T10:08:13;97320.59;;;0.99;93.52
70254;BME280;57649;42.968;1.608;2024-01-10T10:10:50;97323.09;;;1.13;91.89
70254;BME280;57649;42.968;1.608;2024-01-10T10:13:29;97313.09;;;1.29;92.21
70254;BME280;57649;42.968;1.608;2024-01-10T10:16:00;97300.66;;;1.31;92.32
70254;BME280;57649;42.968;1.608;2024-01-10T10:18:27;97308.84;;;1.40;91.46
70254;BME280;57649;42.968;1.608;2024-01-10T10:23:39;97307.19;;;1.50;91.91
70254;BME280;57649;42.968;1.608;2024-01-10T10:26:16;97304.53;;;1.74;91.32
70254;BME280;57649;42.968;1.608;2024-01-10T10:28:46;97307.41;;;1.71;91.24
70254;BME280;57649;42.968;1.608;2024-01-10T10:31:13;97303.34;;;1.78;89.44
70254;BME280;57649;42.968;1.608;2024-01-10T10:33:39;97308.88;;;1.86;88.67
70254;BME280;57649;42.968;1.608;2024-01-10T10:36:06;97302.25;;;1.81;88.24
70254;BME280;57649;42.968;1.608;2024-01-10T10:38:31;97296.53;;;1.87;87.22
70254;BME280;57649;42.968;1.608;2024-01-10T10:40:58;97303.28;;;2.14;86.08
70254;BME280;57649;42.968;1.608;2024-01-10T10:43:25;97295.16;;;2.28;84.31
70254;BME280;57649;42.968;1.608;2024-01-10T10:45:51;97291.56;;;2.40;84.56
70254;BME280;57649;42.968;1.608;2024-01-10T10:48:20;97288.44;;;2.24;85.77
70254;BME280;57649;42.968;1.608;2024-01-10T10:51:16;97290.34;;;2.44;84.12
70254;BME280;57649;42.968;1.608;2024-01-10T10:53:43;97290.72;;;2.51;82.82
70254;BME280;57649;42.968;1.608;2024-01-10T10:56:12;97284.13;;;2.57;83.02
70254;BME280;57649;42.968;1.608;2024-01-10T10:58:42;97263.41;;;2.62;82.93
70254;BME280;57649;42.968;1.608;2024-01-10T11:01:11;97273.16;;;2.61;82.69
70254;BME280;57649;42.968;1.608;2024-01-10T11:03:41;97270.03;;;2.79;82.25
70254;BME280;57649;42.968;1.608;2024-01-10T11:06:08;97263.38;;;2.96;80.16
70254;BME280;57649;42.968;1.608;2024-01-10T11:08:40;97275.78;;;2.95;80.32
70254;BME280;57649;42.968;1.608;2024-01-10T11:11:18;97280.56;;;3.01;80.98
70254;BME280;57649;42.968;1.608;2024-01-10T11:19:40;97270.13;;;2.88;81.81
70254;BME280;57649;42.968;1.608;2024-01-10T11:24:43;97268.56;;;2.86;81.07
70254;BME280;57649;42.968;1.608;2024-01-10T11:27:12;97265.56;;;2.91;81.00
70254;BME280;57649;42.968;1.608;2024-01-10T11:29:39;97253.97;;;3.03;80.17
70254;BME280;57649;42.968;1.608;2024-01-10T11:32:08;97260.66;;;3.18;79.40
70254;BME280;57649;42.968;1.608;2024-01-10T11:35:00;97255.06;;;3.33;79.18
70254;BME280;57649;42.968;1.608;2024-01-10T11:37:42;97266.75;;;3.83;78.20
70254;BME280;57649;42.968;1.608;2024-01-10T11:41:08;97267.00;;;4.01;76.63
70254;BME280;57649;42.968;1.608;2024-01-10T11:43:20;97272.53;;;4.50;75.51
70254;BME280;57649;42.968;1.608;2024-01-10T11:46:03;97265.34;;;4.62;74.08
70254;BME280;57649;42.968;1.608;2024-01-10T11:48:31;97271.22;;;4.66;74.93
70254;BME280;57649;42.968;1.608;2024-01-10T11:50:58;97274.13;;;4.32;77.14
70254;BME280;57649;42.968;1.608;2024-01-10T11:53:48;97258.53;;;4.38;77.28
70254;BME280;57649;42.968;1.608;2024-01-10T11:56:16;97260.72;;;4.54;76.29
70254;BME280;57649;42.968;1.608;2024-01-10T11:59:01;97257.31;;;4.52;77.23
70254;BME280;57649;42.968;1.608;2024-01-10T12:01:29;97257.78;;;4.57;76.42
70254;BME280;57649;42.968;1.608;2024-01-10T12:03:57;97257.78;;;4.57;77.76
70254;BME280;57649;42.968;1.608;2024-01-10T12:06:23;97243.34;;;4.40;77.65
70254;BME280;57649;42.968;1.608;2024-01-10T12:08:50;97238.06;;;4.19;78.66
70254;BME280;57649;42.968;1.608;2024-01-10T12:11:16;97245.19;;;4.19;79.14
70254;BME280;57649;42.968;1.608;2024-01-10T12:13:42;97238.03;;;4.10;80.43
70254;BME280;57649;42.968;1.608;2024-01-10T12:16:08;97249.88;;;4.05;81.00
70254;BME280;57649;42.968;1.608;2024-01-10T12:18:33;97254.22;;;3.85;82.20
70254;BME280;57649;42.968;1.608;2024-01-10T12:20:59;97254.28;;;3.74;83.82
70254;BME280;57649;42.968;1.608;2024-01-10T12:23:25;97267.13;;;3.79;84.07
70254;BME280;57649;42.968;1.608;2024-01-10T12:25:56;97255.53;;;3.70;84.31
70254;BME280;57649;42.968;1.608;2024-01-10T12:28:21;97253.47;;;3.74;85.27
70254;BME280;57649;42.968;1.608;2024-01-10T12:30:47;97251.06;;;3.71;86.77
70254;BME280;57649;42.968;1.608;2024-01-10T12:33:22;97254.06;;;3.66;88.43
70254;BME280;57649;42.968;1.608;2024-01-10T12:36:05;97243.59;;;3.64;89.65
70254;BME280;57649;42.968;1.608;2024-01-10T12:38:32;97247.69;;;3.69;90.77
70254;BME280;57649;42.968;1.608;2024-01-10T12:41:07;97243.31;;;3.58;92.11
70254;BME280;57649;42.968;1.608;2024-01-10T12:43:37;97241.88;;;3.54;93.80
70254;BME280;57649;42.968;1.608;2024-01-10T12:46:10;97244.34;;;3.66;93.76
70254;BME280;57649;42.968;1.608;2024-01-10T12:48:44;97244.59;;;3.63;94.56
70254;BME280;57649;42.968;1.608;2024-01-10T12:51:11;97244.53;;;3.54;96.03
70254;BME280;57649;42.968;1.608;2024-01-10T12:53:41;97253.50;;;3.62;96.43
70254;BME280;57649;42.968;1.608;2024-01-10T12:56:09;97253.06;;;3.57;97.83
70254;BME280;57649;42.968;1.608;2024-01-10T12:58:35;97261.25;;;3.54;98.16
70254;BME280;57649;42.968;1.608;2024-01-10T13:01:02;97249.25;;;3.50;100.00
70254;BME280;57649;42.968;1.608;2024-01-10T13:03:28;97249.78;;;3.33;100.00
70254;BME280;57649;42.968;1.608;2024-01-10T13:05:54;97247.38;;;3.41;100.00
70254;BME280;57649;42.968;1.608;2024-01-10T13:08:19;97252.91;;;3.38;100.00
70254;BME280;57649;42.968;1.608;2024-01-10T13:10:46;97242.19;;;3.39;100.00